Accueil
METAR-TAF:

METAR-TAF

Aéroports :

Locarno, Suisse

latitude: 46-09-55N, longitude: 8-52-40E, altitude: 198 m

Observation

Le bulletin a été fait il y a 53 minutes, à 04:50 UTC
Vent 4 kt de est/sud-est
Température 4°C
Humidité 75%
Pression 1003 hPa
Visibilité 10 km ou plus
Quelques nuages à une hauteur de 5900 ft
Nuages fragmentés à une hauteur de 7600 ft

METAR: LSZL 240450Z AUTO 12004KT 9999NDV FEW059 BKN076 04/M00 Q1003 RMK

Heure: 06:43 (05:43 UTC)

Prévision

Le bulletin a été fait il y a 3 heures et 18 minutes, à 02:25 UTC
Prévision valable du 24 à 03 UTC au 24 à 12 UTC
Vent 2 kt de direction variable
Visibilité 10 km ou plus
Nuages fragmentés à une hauteur de 7000 ft
Probabilité 30% :
Temporairement
du 24 à 06 UTC au 24 à 12 UTC
Nuages épars à une hauteur de 4000 ft, Cumulus congestus.
averses de pluie,

TAF: LSZL 240225Z 2403/2412 VRB02KT 9999 BKN070 PROB30 TEMPO 2406/2412 SHRA SCT040TCU

Observations et prévisions météorologiques de plus de 4000 aéroports (messages METAR et TAF).

Les stations disponibles sont représentées par des disques jaunes et rouges sur la carte.

Passer la souris dessus pour voir le nom de la station.

Cliquer dessus pour voir les observations et prévisions météorologiques.

Pour changer de carte: cliquez sur les boutons verts avec une croix noire pour zoomer, sur le bouton vert avec un tiret pour effectuer un zoom arrière, ou sur les flèches vertes pour les cartes adjacentes.


METAR-TAF: